createdAt,value
2019-04-04T00:00:41.180Z,9.13
2019-04-04T00:03:14.591Z,9.03
2019-04-04T00:05:47.902Z,8.57
2019-04-04T00:08:21.307Z,7.90
2019-04-04T00:10:54.797Z,7.63
2019-04-04T00:13:28.196Z,8.70
2019-04-04T00:16:02.078Z,7.30
2019-04-04T00:18:35.496Z,7.37
2019-04-04T00:21:08.952Z,7.43
2019-04-04T00:23:42.436Z,7.23
2019-04-04T00:26:15.755Z,7.87
2019-04-04T00:28:49.196Z,7.50
2019-04-04T00:31:22.600Z,7.80
2019-04-04T00:33:56.464Z,7.30
2019-04-04T00:36:30.074Z,7.47
2019-04-04T00:39:05.204Z,7.13
2019-04-04T00:41:38.611Z,6.77
2019-04-04T00:44:12.088Z,6.90
2019-04-04T00:46:46.419Z,6.03
2019-04-04T00:49:19.876Z,6.83
2019-04-04T00:51:53.355Z,7.07
2019-04-04T00:54:26.718Z,6.40
2019-04-04T00:57:00.071Z,8.67
2019-04-04T00:59:33.554Z,6.27
2019-04-04T01:02:07.010Z,5.80
2019-04-04T01:04:40.394Z,5.80
2019-04-04T01:07:13.865Z,6.57
2019-04-04T01:09:47.912Z,5.03
2019-04-04T01:12:22.365Z,5.33
2019-04-04T01:14:55.978Z,6.43
2019-04-04T01:17:29.364Z,7.43
2019-04-04T01:20:03.077Z,6.40
2019-04-04T01:22:36.457Z,6.60
2019-04-04T01:25:10.063Z,6.40
2019-04-04T01:27:43.477Z,6.40
2019-04-04T01:30:17.456Z,7.37
2019-04-04T01:32:50.866Z,6.27
2019-04-04T01:35:24.197Z,7.97
2019-04-04T01:37:59.265Z,5.87
2019-04-04T01:40:33.623Z,7.73
2019-04-04T01:43:09.247Z,7.30
2019-04-04T01:45:44.045Z,6.63
2019-04-04T01:48:18.867Z,6.20
2019-04-04T01:50:53.736Z,7.07
2019-04-04T01:53:28.124Z,7.60
2019-04-04T01:56:05.933Z,8.13
2019-04-04T01:58:40.858Z,7.90
2019-04-04T02:01:13.135Z,7.97
2019-04-04T02:03:48.183Z,6.93
2019-04-04T02:06:21.528Z,7.00
2019-04-04T02:08:55.044Z,6.37
2019-04-04T02:11:28.438Z,7.00
2019-04-04T02:14:01.811Z,6.63
2019-04-04T02:16:35.132Z,9.90
2019-04-04T02:19:08.504Z,7.27
2019-04-04T02:21:41.830Z,7.97
2019-04-04T02:24:15.234Z,7.23
2019-04-04T02:26:48.615Z,7.30
2019-04-04T02:29:22.035Z,6.60
2019-04-04T02:31:57.143Z,5.90
2019-04-04T02:34:30.493Z,8.97
2019-04-04T02:37:03.913Z,6.80
2019-04-04T02:39:37.332Z,6.77
2019-04-04T02:42:10.731Z,6.53
2019-04-04T02:44:44.228Z,7.23
2019-04-04T02:47:18.332Z,14.83
2019-04-04T02:49:51.886Z,7.97
2019-04-04T02:52:25.291Z,7.17
2019-04-04T02:54:58.705Z,9.27
2019-04-04T02:57:32.015Z,7.33
2019-04-04T03:00:06.479Z,6.03
2019-04-04T03:02:39.840Z,4.33
2019-04-04T03:05:13.362Z,4.27
2019-04-04T03:07:46.841Z,7.30
2019-04-04T03:10:20.340Z,7.77
2019-04-04T03:12:57.990Z,9.00
2019-04-04T03:15:29.033Z,7.97
2019-04-04T03:18:05.239Z,7.07
2019-04-04T03:20:37.757Z,7.10
2019-04-04T03:23:11.168Z,5.97
2019-04-04T03:25:44.659Z,11.93
2019-04-04T03:28:19.590Z,7.17
2019-04-04T03:31:01.796Z,8.53
2019-04-04T03:33:31.581Z,6.10
2019-04-04T03:36:03.251Z,15.07
2019-04-04T03:38:36.680Z,7.83
2019-04-04T03:41:10.073Z,16.10
2019-04-04T03:43:45.783Z,7.00
2019-04-04T03:46:18.493Z,7.47
2019-04-04T03:48:51.828Z,12.20
2019-04-04T03:51:25.224Z,8.27
2019-04-04T03:54:00.237Z,10.87
2019-04-04T03:56:38.977Z,14.97
2019-04-04T03:59:08.866Z,11.97
2019-04-04T04:01:45.225Z,9.03
2019-04-04T04:04:17.346Z,9.70
2019-04-04T04:06:50.751Z,15.33
2019-04-04T04:09:26.333Z,10.60
2019-04-04T04:11:59.201Z,11.40
2019-04-04T04:14:32.584Z,45.83
2019-04-04T04:17:05.973Z,11.30
2019-04-04T04:19:39.375Z,13.83
2019-04-04T04:22:13.317Z,10.10
2019-04-04T04:24:47.841Z,14.60
2019-04-04T04:27:21.310Z,18.70
2019-04-04T04:29:54.695Z,14.60
2019-04-04T04:32:28.159Z,14.93
2019-04-04T04:35:01.679Z,20.00
2019-04-04T04:37:35.218Z,14.63
2019-04-04T04:40:13.908Z,34.63
2019-04-04T04:42:44.367Z,14.23
2019-04-04T04:45:17.762Z,16.00
2019-04-04T04:47:51.136Z,13.57
2019-04-04T04:50:24.553Z,14.77
2019-04-04T04:52:57.994Z,15.37
2019-04-04T04:55:31.392Z,13.73
2019-04-04T04:58:04.866Z,16.33
2019-04-04T05:00:40.040Z,21.87
2019-04-04T05:03:13.594Z,18.50
2019-04-04T05:05:46.938Z,21.57
2019-04-04T05:08:20.285Z,40.63
2019-04-04T05:10:53.769Z,24.70
2019-04-04T05:13:28.793Z,21.57
2019-04-04T05:16:05.191Z,26.10
2019-04-04T05:18:37.581Z,24.20
2019-04-04T05:21:11.026Z,21.73
2019-04-04T05:23:44.934Z,22.77
2019-04-04T05:26:19.581Z,18.00
2019-04-04T05:28:52.920Z,30.07
2019-04-04T05:31:26.303Z,20.47
2019-04-04T05:33:59.955Z,18.97
2019-04-04T05:36:36.041Z,21.50
2019-04-04T05:39:09.095Z,24.10
2019-04-04T05:41:42.660Z,19.53
2019-04-04T05:44:16.157Z,24.93
2019-04-04T05:46:51.907Z,19.33
2019-04-04T05:49:24.897Z,15.57
2019-04-04T05:51:58.339Z,17.90
2019-04-04T05:54:31.681Z,18.60
2019-04-04T05:57:05.110Z,20.27
2019-04-04T05:59:38.503Z,17.67
2019-04-04T06:02:12.182Z,21.63
2019-04-04T06:04:45.591Z,20.10
2019-04-04T06:07:19.020Z,15.37
2019-04-04T06:09:52.392Z,18.53
2019-04-04T06:12:25.814Z,15.27
2019-04-04T06:15:00.557Z,17.97
2019-04-04T06:17:34.243Z,19.73
2019-04-04T06:20:08.497Z,16.07
2019-04-04T06:22:41.963Z,18.90
2019-04-04T06:25:15.397Z,17.27
2019-04-04T06:27:48.747Z,15.83
2019-04-04T06:30:22.069Z,14.77
2019-04-04T06:32:55.440Z,16.53
2019-04-04T06:35:28.895Z,16.67
2019-04-04T06:38:02.351Z,14.83
2019-04-04T06:40:35.798Z,14.17
2019-04-04T06:43:11.577Z,15.70
2019-04-04T06:45:46.270Z,14.53
2019-04-04T06:48:19.481Z,14.90
2019-04-04T06:50:52.856Z,16.43
2019-04-04T06:53:26.211Z,14.20
2019-04-04T06:56:00.359Z,15.10
2019-04-04T06:58:34.445Z,14.90
2019-04-04T07:01:10.910Z,17.03
2019-04-04T07:03:42.926Z,15.67
2019-04-04T07:06:16.344Z,15.83
2019-04-04T07:08:49.773Z,19.53
2019-04-04T07:11:23.190Z,15.37
2019-04-04T07:13:57.026Z,15.70
2019-04-04T07:16:31.652Z,16.57
2019-04-04T07:19:07.853Z,18.23
2019-04-04T07:21:40.788Z,18.00
2019-04-04T07:24:14.488Z,19.23
2019-04-04T07:26:48.048Z,18.83
2019-04-04T07:29:23.022Z,21.47
2019-04-04T07:31:57.229Z,20.60
2019-04-04T07:34:30.730Z,20.40
2019-04-04T07:37:04.748Z,22.07
2019-04-04T07:39:38.536Z,24.03
2019-04-04T07:42:15.567Z,24.80
2019-04-04T07:44:47.434Z,23.83
2019-04-04T07:47:20.867Z,24.47
2019-04-04T07:49:55.024Z,25.53
2019-04-04T07:52:29.048Z,27.00
2019-04-04T07:55:02.422Z,29.33
2019-04-04T07:57:35.781Z,26.47
2019-04-04T08:00:09.387Z,27.30
2019-04-04T08:02:42.939Z,28.43
2019-04-04T08:05:16.697Z,28.13
2019-04-04T08:07:50.159Z,28.63
2019-04-04T08:10:23.520Z,24.07
2019-04-04T08:12:56.982Z,23.70
2019-04-04T08:15:30.408Z,24.30
2019-04-04T08:18:03.732Z,22.30
2019-04-04T08:20:37.196Z,22.10
2019-04-04T08:23:10.616Z,21.37
2019-04-04T08:25:43.962Z,20.43
2019-04-04T08:28:17.458Z,21.17
2019-04-04T08:30:50.782Z,20.47
2019-04-04T08:33:24.288Z,21.20
2019-04-04T08:36:05.766Z,20.17
2019-04-04T08:38:32.787Z,20.03
2019-04-04T08:41:06.251Z,18.07
2019-04-04T08:43:39.678Z,20.77
2019-04-04T08:46:13.086Z,19.57
2019-04-04T08:48:46.477Z,17.43
2019-04-04T08:51:19.815Z,19.17
2019-04-04T08:53:53.193Z,20.00
2019-04-04T08:56:26.657Z,22.70
2019-04-04T08:59:00.024Z,25.37
2019-04-04T09:01:33.373Z,23.07
2019-04-04T09:04:06.768Z,24.30
2019-04-04T09:06:40.144Z,21.83
2019-04-04T09:09:13.633Z,23.77
2019-04-04T09:11:47.087Z,21.40
2019-04-04T09:14:20.515Z,22.77
2019-04-04T09:16:54.439Z,24.90
2019-04-04T09:19:27.890Z,23.17
2019-04-04T09:22:01.239Z,24.60
2019-04-04T09:24:34.662Z,23.03
2019-04-04T09:27:08.054Z,27.33
2019-04-04T09:29:41.460Z,23.57
2019-04-04T09:32:14.774Z,27.47
2019-04-04T09:34:48.227Z,29.90
2019-04-04T09:37:21.613Z,24.13
2019-04-04T09:39:55.100Z,25.83
2019-04-04T09:42:28.716Z,23.53
2019-04-04T09:45:02.231Z,26.93
2019-04-04T09:47:35.577Z,23.10
2019-04-04T09:50:10.174Z,24.90
2019-04-04T09:52:43.679Z,26.53
2019-04-04T09:55:17.130Z,24.83
2019-04-04T09:57:50.571Z,28.00
2019-04-04T10:00:24.276Z,29.73
2019-04-04T10:02:57.807Z,28.43
2019-04-04T10:05:31.515Z,28.53
2019-04-04T10:08:05.595Z,29.53
2019-04-04T10:10:38.932Z,34.67
2019-04-04T10:13:12.253Z,32.33
2019-04-04T10:15:45.695Z,29.00
2019-04-04T10:18:19.015Z,30.63
2019-04-04T10:20:52.464Z,34.07
2019-04-04T10:23:25.793Z,36.37
2019-04-04T10:25:59.306Z,40.33
2019-04-04T10:28:32.633Z,44.03
2019-04-04T10:31:06.008Z,47.43
2019-04-04T10:33:42.063Z,44.13
2019-04-04T10:36:14.427Z,42.80
2019-04-04T10:38:47.847Z,43.03
2019-04-04T10:41:21.269Z,43.70
2019-04-04T10:43:54.666Z,47.20
2019-04-04T10:46:28.095Z,43.47
2019-04-04T10:49:01.465Z,49.23
2019-04-04T10:51:34.905Z,45.80
2019-04-04T10:54:08.248Z,51.17
2019-04-04T10:56:41.614Z,50.77
2019-04-04T10:59:15.007Z,45.70
2019-04-04T11:01:48.502Z,56.70
2019-04-04T11:04:21.830Z,54.57
2019-04-04T11:06:55.176Z,50.33
2019-04-04T11:09:36.351Z,51.43
2019-04-04T11:12:03.639Z,51.97
2019-04-04T11:14:37.030Z,55.37
2019-04-04T11:17:10.503Z,51.97
2019-04-04T11:19:43.907Z,60.07
2019-04-04T11:22:17.328Z,56.77
2019-04-04T11:24:50.822Z,62.13
2019-04-04T11:27:24.173Z,52.83
2019-04-04T11:29:57.634Z,46.73
2019-04-04T11:32:31.000Z,52.70
2019-04-04T11:35:06.331Z,53.53
2019-04-04T11:37:39.794Z,50.73
2019-04-04T11:40:13.225Z,53.47
2019-04-04T11:42:46.663Z,53.03
2019-04-04T11:45:20.132Z,52.20
2019-04-04T11:47:53.514Z,56.73
2019-04-04T11:50:26.835Z,53.37
2019-04-04T11:53:00.272Z,53.57
2019-04-04T11:55:34.259Z,55.10
2019-04-04T11:58:07.681Z,56.47
2019-04-04T12:00:45.532Z,56.37
2019-04-04T12:03:19.586Z,52.03
2019-04-04T12:05:53.012Z,56.63
2019-04-04T12:08:26.392Z,55.77
2019-04-04T12:10:59.712Z,56.90
2019-04-04T12:13:33.087Z,50.20
2019-04-04T12:16:06.516Z,51.90
2019-04-04T12:18:39.865Z,47.07
2019-04-04T12:21:13.290Z,51.13
2019-04-04T12:23:46.630Z,54.33
2019-04-04T12:26:20.075Z,51.80
2019-04-04T12:28:53.402Z,52.77
2019-04-04T12:31:26.797Z,46.90
2019-04-04T12:34:02.064Z,47.63
2019-04-04T12:36:35.209Z,47.60
2019-04-04T12:39:08.616Z,50.87
2019-04-04T12:41:41.970Z,49.90
2019-04-04T12:44:15.295Z,49.20
2019-04-04T12:46:48.734Z,50.63
2019-04-04T12:49:22.157Z,57.03
2019-04-04T12:51:55.545Z,58.73
2019-04-04T12:54:28.882Z,58.70
2019-04-04T12:57:02.293Z,56.77
2019-04-04T12:59:35.737Z,56.93
2019-04-04T13:02:09.096Z,59.37
2019-04-04T13:04:42.437Z,56.95
2019-04-04T13:07:15.886Z,57.47
2019-04-04T13:09:49.252Z,65.30
2019-04-04T13:12:22.619Z,59.63
2019-04-04T13:14:55.947Z,58.87
2019-04-04T13:17:29.395Z,65.10
2019-04-04T13:20:02.799Z,60.70
2019-04-04T13:22:36.249Z,64.77
2019-04-04T13:25:10.027Z,61.87
2019-04-04T13:27:43.424Z,63.47
2019-04-04T13:30:16.936Z,62.13
2019-04-04T13:32:50.402Z,60.92
2019-04-04T13:35:23.903Z,57.80
2019-04-04T13:37:57.243Z,59.37
2019-04-04T13:40:30.666Z,57.35
2019-04-04T13:43:04.159Z,57.80
2019-04-04T13:45:37.544Z,55.10
2019-04-04T13:48:12.707Z,55.23
2019-04-04T13:50:46.047Z,55.88
2019-04-04T13:53:20.816Z,54.70
2019-04-04T13:55:54.518Z,56.20
2019-04-04T13:58:27.872Z,54.83
2019-04-04T14:01:01.215Z,53.33
2019-04-04T14:03:34.562Z,52.25
2019-04-04T14:06:07.966Z,54.45
2019-04-04T14:08:41.421Z,52.27
2019-04-04T14:11:14.754Z,53.60
2019-04-04T14:13:49.454Z,51.00
2019-04-04T14:16:23.017Z,55.10
2019-04-04T14:18:56.378Z,54.35
2019-04-04T14:21:29.697Z,52.45
2019-04-04T14:24:12.843Z,52.98
2019-04-04T14:26:38.287Z,50.12
2019-04-04T14:29:11.706Z,51.15
2019-04-04T14:31:45.057Z,50.48
2019-04-04T14:34:18.421Z,48.98
2019-04-04T14:36:51.737Z,48.45
2019-04-04T14:39:25.080Z,47.65
2019-04-04T14:41:58.461Z,44.77
2019-04-04T14:44:31.799Z,46.70
2019-04-04T14:47:05.215Z,46.35
2019-04-04T14:49:38.559Z,48.35
2019-04-04T14:52:11.963Z,44.67
2019-04-04T14:54:45.358Z,41.98
2019-04-04T14:57:18.791Z,44.83
2019-04-04T14:59:52.119Z,44.25
2019-04-04T15:02:25.479Z,43.68
2019-04-04T15:04:58.887Z,42.08
2019-04-04T15:07:32.253Z,41.20
2019-04-04T15:10:05.839Z,42.30
2019-04-04T15:12:39.184Z,38.23
2019-04-04T15:15:12.652Z,38.02
2019-04-04T15:17:46.045Z,41.25
2019-04-04T15:20:19.453Z,39.70
2019-04-04T15:22:52.831Z,39.18
2019-04-04T15:25:26.165Z,40.52
2019-04-04T15:27:59.538Z,42.00
2019-04-04T15:30:32.896Z,40.95
2019-04-04T15:33:06.310Z,43.95
2019-04-04T15:35:39.629Z,40.33
2019-04-04T15:38:12.981Z,40.05
2019-04-04T15:40:46.376Z,41.75
2019-04-04T15:43:19.858Z,39.80
2019-04-04T15:45:53.233Z,38.92
2019-04-04T15:48:26.581Z,40.52
2019-04-04T15:51:00.002Z,39.73
2019-04-04T15:53:33.363Z,38.90
2019-04-04T15:56:06.690Z,41.68
2019-04-04T15:58:40.042Z,39.63
2019-04-04T16:01:13.430Z,39.13
2019-04-04T16:03:46.813Z,39.80
2019-04-04T16:06:20.221Z,38.17
2019-04-04T16:08:53.579Z,39.98
2019-04-04T16:11:26.954Z,37.80
2019-04-04T16:14:00.308Z,37.98
2019-04-04T16:16:33.631Z,39.05
2019-04-04T16:19:07.097Z,37.70
2019-04-04T16:21:40.513Z,39.75
2019-04-04T16:24:13.889Z,41.55
2019-04-04T16:26:47.235Z,38.08
2019-04-04T16:29:20.591Z,39.75
2019-04-04T16:31:53.926Z,40.05
2019-04-04T16:34:27.353Z,41.48
2019-04-04T16:37:00.768Z,39.23
2019-04-04T16:39:35.441Z,39.38
2019-04-04T16:42:09.016Z,37.98
2019-04-04T16:44:42.445Z,39.70
2019-04-04T16:47:15.847Z,37.95
2019-04-04T16:49:49.365Z,37.67
2019-04-04T16:52:22.771Z,38.53
2019-04-04T16:54:56.235Z,40.95
2019-04-04T16:57:29.579Z,40.75
2019-04-04T17:00:03.461Z,44.00
2019-04-04T17:02:36.787Z,40.33
2019-04-04T17:05:11.082Z,43.63
2019-04-04T17:07:44.730Z,43.17
2019-04-04T17:10:18.165Z,41.53
2019-04-04T17:12:51.719Z,39.40
2019-04-04T17:15:25.087Z,41.20
2019-04-04T17:17:58.550Z,42.70
2019-04-04T17:20:31.905Z,39.45
2019-04-04T17:23:05.307Z,40.33
2019-04-04T17:25:38.825Z,42.88
2019-04-04T17:28:12.743Z,45.52
2019-04-04T17:30:46.278Z,41.42
2019-04-04T17:33:19.763Z,41.40
2019-04-04T17:35:53.083Z,39.73
2019-04-04T17:38:26.408Z,37.13
2019-04-04T17:40:59.827Z,39.70
2019-04-04T17:43:33.548Z,37.67
2019-04-04T17:46:07.028Z,39.17
2019-04-04T17:48:40.371Z,38.83
2019-04-04T17:51:13.787Z,41.13
2019-04-04T17:53:47.131Z,42.03
2019-04-04T17:56:20.498Z,42.57
2019-04-04T17:58:53.826Z,38.77
2019-04-04T18:01:27.173Z,39.87
2019-04-04T18:04:00.559Z,40.27
2019-04-04T18:06:33.909Z,42.53
2019-04-04T18:09:08.797Z,42.23
2019-04-04T18:11:42.255Z,43.37
2019-04-04T18:14:15.695Z,42.90
2019-04-04T18:16:49.127Z,45.57
2019-04-04T18:19:22.544Z,45.43
2019-04-04T18:21:55.916Z,41.80
2019-04-04T18:24:29.348Z,44.73
2019-04-04T18:27:02.763Z,43.10
2019-04-04T18:29:36.103Z,43.33
2019-04-04T18:32:09.473Z,46.53
2019-04-04T18:34:43.030Z,54.23
2019-04-04T18:37:16.499Z,48.93
2019-04-04T18:39:49.826Z,52.50
2019-04-04T18:42:23.185Z,47.13
2019-04-04T18:44:56.513Z,48.50
2019-04-04T18:47:29.966Z,53.00
2019-04-04T18:50:04.223Z,48.73
2019-04-04T18:52:37.567Z,46.13
2019-04-04T18:55:19.637Z,49.73
2019-04-04T18:57:46.082Z,49.20
2019-04-04T19:00:21.009Z,52.43
2019-04-04T19:02:54.429Z,49.03
2019-04-04T19:05:28.150Z,53.90
2019-04-04T19:08:01.537Z,51.30
2019-04-04T19:10:34.899Z,46.47
2019-04-04T19:13:08.349Z,55.03
2019-04-04T19:15:41.796Z,53.13
2019-04-04T19:18:15.194Z,64.70
2019-04-04T19:20:48.557Z,66.67
2019-04-04T19:23:21.934Z,50.10
2019-04-04T19:25:55.302Z,49.03
2019-04-04T19:28:28.652Z,51.80
2019-04-04T19:31:02.073Z,46.77
2019-04-04T19:33:35.406Z,49.73
2019-04-04T19:36:08.841Z,60.03
2019-04-04T19:38:42.167Z,50.47
2019-04-04T19:41:15.644Z,47.57
2019-04-04T19:43:49.050Z,50.93
2019-04-04T19:46:22.425Z,46.53
2019-04-04T19:48:55.763Z,41.33
2019-04-04T19:51:29.205Z,56.33
2019-04-04T19:54:02.604Z,49.87
2019-04-04T19:56:35.997Z,42.47
2019-04-04T19:59:09.302Z,45.87
2019-04-04T20:01:42.684Z,47.20
2019-04-04T20:04:16.099Z,59.77
2019-04-04T20:06:49.540Z,49.30
2019-04-04T20:09:22.943Z,41.80
2019-04-04T20:11:56.303Z,43.20
2019-04-04T20:14:29.685Z,45.93
2019-04-04T20:17:03.123Z,40.10
2019-04-04T20:19:36.470Z,38.27
2019-04-04T20:22:09.841Z,42.50
2019-04-04T20:24:43.263Z,43.80
2019-04-04T20:27:16.680Z,40.70
2019-04-04T20:29:50.022Z,38.17
2019-04-04T20:32:23.446Z,38.33
2019-04-04T20:34:56.856Z,38.70
2019-04-04T20:37:30.240Z,37.13
2019-04-04T20:40:04.833Z,41.70
2019-04-04T20:42:38.254Z,39.67
2019-04-04T20:45:11.756Z,40.10
2019-04-04T20:47:45.118Z,38.40
2019-04-04T20:50:18.522Z,39.30
2019-04-04T20:52:51.988Z,34.10
2019-04-04T20:55:25.306Z,34.03
2019-04-04T20:57:58.704Z,33.40
2019-04-04T21:00:32.032Z,39.07
2019-04-04T21:03:05.524Z,37.33
2019-04-04T21:05:38.919Z,36.73
2019-04-04T21:08:12.288Z,39.90
2019-04-04T21:10:45.609Z,41.60
2019-04-04T21:13:19.042Z,42.20
2019-04-04T21:15:52.429Z,31.50
2019-04-04T21:18:25.802Z,35.73
2019-04-04T21:20:59.153Z,37.60
2019-04-04T21:23:32.524Z,47.77
2019-04-04T21:26:06.006Z,40.00
2019-04-04T21:28:39.386Z,42.17
2019-04-04T21:31:12.704Z,42.17
2019-04-04T21:33:46.159Z,47.77
2019-04-04T21:36:19.550Z,41.20
2019-04-04T21:38:52.965Z,40.17
2019-04-04T21:41:26.364Z,37.80
2019-04-04T21:44:08.769Z,36.63
2019-04-04T21:46:35.001Z,44.43
2019-04-04T21:49:08.390Z,48.63
2019-04-04T21:51:41.712Z,41.43
2019-04-04T21:54:15.165Z,48.03
2019-04-04T21:56:48.493Z,49.07
2019-04-04T21:59:21.880Z,51.03
2019-04-04T22:01:55.268Z,40.93
2019-04-04T22:04:28.688Z,43.53
2019-04-04T22:07:02.155Z,47.07
2019-04-04T22:09:35.593Z,44.10
2019-04-04T22:12:08.964Z,44.37
2019-04-04T22:14:42.627Z,44.00
2019-04-04T22:17:16.021Z,43.33
2019-04-04T22:19:49.354Z,41.87
2019-04-04T22:22:22.712Z,39.90
2019-04-04T22:24:56.032Z,44.70
2019-04-04T22:27:29.629Z,40.93
2019-04-04T22:30:04.303Z,39.50
2019-04-04T22:32:37.667Z,42.03
2019-04-04T22:35:11.255Z,47.27
2019-04-04T22:37:44.613Z,41.23
2019-04-04T22:40:18.011Z,37.40
2019-04-04T22:42:51.398Z,41.53
2019-04-04T22:45:24.739Z,44.53
2019-04-04T22:47:58.189Z,44.00
2019-04-04T22:50:31.526Z,43.30
2019-04-04T22:53:04.884Z,42.70
2019-04-04T22:55:38.200Z,43.13
2019-04-04T22:58:11.568Z,51.60
2019-04-04T23:00:44.967Z,43.77
2019-04-04T23:03:18.412Z,44.43
2019-04-04T23:05:51.733Z,37.57
2019-04-04T23:08:25.095Z,43.50
2019-04-04T23:10:58.489Z,49.67
2019-04-04T23:13:31.961Z,50.70
2019-04-04T23:16:05.387Z,50.53
2019-04-04T23:18:38.832Z,47.93
2019-04-04T23:21:12.282Z,75.73
2019-04-04T23:23:45.682Z,44.00
2019-04-04T23:26:19.019Z,54.17
2019-04-04T23:28:52.369Z,56.00
2019-04-04T23:31:25.824Z,48.87
2019-04-04T23:33:59.176Z,54.50
2019-04-04T23:36:35.299Z,55.60
2019-04-04T23:39:09.279Z,52.30
2019-04-04T23:41:42.597Z,63.37
2019-04-04T23:44:15.996Z,54.70
2019-04-04T23:46:49.415Z,66.13
2019-04-04T23:49:22.807Z,57.83
2019-04-04T23:51:56.181Z,47.63
2019-04-04T23:54:29.575Z,52.07
2019-04-04T23:57:02.921Z,48.83
2019-04-04T23:59:36.476Z,61.33
